Jefferson, Jackson County Airport (KJCA)

NameJackson County Airport
CityJefferson
CountryUnited States
ICAOKJCA
IATA
Altitude290 m
CoordinatesGoogle Map
Live Air TrafficLiveATC.net
METARKJCA 151655Z AUTO 05011KT 10SM SCT028 SCT036 OVC075 08/04 A3015 RMK AO2 T00800042
2019-11-15 16:55:00 Wind: Northeast (50°) 5.66 m/s - Visibility: 16093.4 m - Temperature: 8 °C - Dew point: 4 °C - Humidity: 76.1% - Pressure: 1021 hPa

Sorry, no flights used the airport in this database.